Aviation Digital Data Service (ADDS)

Output produced by TAFs form (1706 UTC 19 January 2017)
found at http://aviationweather.gov/adds/tafs/
 
KCNY 191134Z 1912/2012 00000KT P6SM SCT140 
     FM191600 16004KT P6SM VCSH BKN050 OVC100 
     FM191800 09004KT P6SM -RASN BKN025 OVC040 
     FM200000 18004KT 2SM -SN OVC020